Time;durP1;ratioP1;P1;durP2;ratioP2;P2;SDS_P1;SDS_P2;PMS_P1;PMS_P2;Temp;Humidity;BMP_temperature;BMP_pressure;BME280_temperature;BME280_humidity;BME280_pressure;Samples;Min_cycle;Max_cycle;Signal;HPM_P1;HPM_P2
2021/06/18 00:02:43;;;;;;;4.90;2.08;;;;;;;;;;143738;679;45021;-88
2021/06/18 00:05:32;;;;;;;8.65;2.85;;;;;;;;;;143738;584;45020;-87
2021/06/18 00:08:25;;;;;;;3.62;2.22;;;;;;;;;;143735;606;47020;-87
2021/06/18 00:11:05;;;;;;;3.60;2.25;;;;;;;;;;143736;587;45918;-88
2021/06/18 00:13:32;;;;;;;6.03;2.35;;;;;;;;;;143739;571;45048;-87
2021/06/18 00:15:58;;;;;;;10.13;2.40;;;;;;;;;;143735;661;46012;-86
2021/06/18 00:18:25;;;;;;;7.32;2.78;;;;;;;;;;143734;599;46020;-87
2021/06/18 00:20:52;;;;;;;6.35;1.95;;;;;;;;;;143735;609;46012;-85
2021/06/18 00:23:20;;;;;;;6.18;2.35;;;;;;;;;;143734;579;46021;-85
2021/06/18 00:25:48;;;;;;;2.60;1.45;;;;;;;;;;143737;807;46012;-85
2021/06/18 00:28:18;;;;;;;5.15;2.25;;;;;;;;;;143736;717;46022;-85
2021/06/18 00:30:45;;;;;;;4.47;2.00;;;;;;;;;;143731;678;46012;-87
2021/06/18 00:33:13;;;;;;;6.65;2.05;;;;;;;;;;143736;670;46020;-87
2021/06/18 00:35:39;;;;;;;6.22;2.22;;;;;;;;;;143735;633;46013;-86
2021/06/18 00:38:06;;;;;;;3.95;2.78;;;;;;;;;;143732;564;46023;-86
2021/06/18 00:40:33;;;;;;;7.47;2.50;;;;;;;;;;143734;591;46012;-85
2021/06/18 00:43:00;;;;;;;4.43;2.12;;;;;;;;;;143732;648;46020;-87
2021/06/18 00:45:27;;;;;;;3.05;2.10;;;;;;;;;;143737;585;46018;-87
2021/06/18 00:47:59;;;;;;;5.20;1.80;;;;;;;;;;143734;601;46020;-86
2021/06/18 00:50:28;;;;;;;5.00;1.80;;;;;;;;;;143732;594;46012;-88
2021/06/18 00:52:55;;;;;;;2.75;1.80;;;;;;;;;;143737;617;46014;-87
2021/06/18 00:55:24;;;;;;;4.35;1.80;;;;;;;;;;143734;798;46012;-87
2021/06/18 00:57:51;;;;;;;3.75;2.00;;;;;;;;;;143735;583;46014;-87
2021/06/18 01:00:22;;;;;;;2.42;1.62;;;;;;;;;;143737;627;45021;-88
2021/06/18 01:02:50;;;;;;;9.93;2.75;;;;;;;;;;143733;626;46020;-85
2021/06/18 01:05:18;;;;;;;4.32;2.12;;;;;;;;;;143736;622;46012;-85
2021/06/18 01:08:08;;;;;;;2.70;1.90;;;;;;;;;;143730;616;47023;-85
2021/06/18 01:11:15;;;;;;;3.55;2.72;;;;;;;;;;143738;571;46020;-88
2021/06/18 01:14:13;;;;;;;3.22;2.00;;;;;;;;;;143734;620;46021;-87
2021/06/18 01:17:11;;;;;;;4.12;2.17;;;;;;;;;;143735;569;46014;-84
2021/06/18 01:20:18;;;;;;;3.70;2.20;;;;;;;;;;143732;621;46014;-85
2021/06/18 01:22:47;;;;;;;3.33;2.03;;;;;;;;;;143733;685;46012;-88
2021/06/18 01:25:28;;;;;;;4.60;2.92;;;;;;;;;;143736;572;46020;-87
2021/06/18 01:28:25;;;;;;;4.82;2.60;;;;;;;;;;143734;569;46013;-85
2021/06/18 01:30:51;;;;;;;5.12;2.08;;;;;;;;;;143732;706;46014;-88
2021/06/18 01:33:22;;;;;;;3.45;1.90;;;;;;;;;;143733;607;46012;-87
2021/06/18 01:35:52;;;;;;;4.60;2.70;;;;;;;;;;143734;618;46020;-87
2021/06/18 01:38:22;;;;;;;3.55;2.22;;;;;;;;;;143739;600;46018;-88
2021/06/18 01:40:52;;;;;;;7.80;2.60;;;;;;;;;;143732;583;46022;-87
2021/06/18 01:43:22;;;;;;;5.40;2.53;;;;;;;;;;143736;579;46021;-87
2021/06/18 01:45:50;;;;;;;5.70;2.45;;;;;;;;;;143734;608;46014;-87
2021/06/18 01:48:20;;;;;;;3.62;2.10;;;;;;;;;;143735;666;46012;-86
2021/06/18 01:50:49;;;;;;;8.93;2.78;;;;;;;;;;143735;570;46021;-87
2021/06/18 01:53:20;;;;;;;10.02;2.20;;;;;;;;;;143734;595;46012;-87
2021/06/18 01:55:50;;;;;;;3.80;2.37;;;;;;;;;;143735;588;46020;-87
2021/06/18 01:58:19;;;;;;;2.83;2.35;;;;;;;;;;143735;600;46013;-86
2021/06/18 02:00:49;;;;;;;4.62;2.53;;;;;;;;;;143733;577;46023;-87
2021/06/18 02:03:26;;;;;;;6.62;2.53;;;;;;;;;;143734;569;46012;-88
2021/06/18 02:05:58;;;;;;;6.28;2.58;;;;;;;;;;143734;594;46021;-86
2021/06/18 02:08:27;;;;;;;4.68;2.80;;;;;;;;;;143734;581;46012;-86
2021/06/18 02:10:56;;;;;;;5.03;2.72;;;;;;;;;;143732;628;46044;-87
2021/06/18 02:13:27;;;;;;;4.50;2.53;;;;;;;;;;143732;666;46013;-86
2021/06/18 02:15:55;;;;;;;5.00;2.80;;;;;;;;;;143733;583;46020;-88
2021/06/18 02:18:25;;;;;;;3.35;2.60;;;;;;;;;;143736;642;46018;-88
2021/06/18 02:20:55;;;;;;;5.12;3.10;;;;;;;;;;143732;609;46022;-86
2021/06/18 02:23:26;;;;;;;2.95;2.30;;;;;;;;;;143733;622;46012;-87
2021/06/18 02:25:53;;;;;;;3.62;2.33;;;;;;;;;;143733;650;46020;-87
2021/06/18 02:28:22;;;;;;;5.20;2.60;;;;;;;;;;143734;603;46012;-88
2021/06/18 02:30:52;;;;;;;9.27;2.60;;;;;;;;;;143733;615;46020;-85
2021/06/18 02:33:19;;;;;;;2.85;2.40;;;;;;;;;;143733;604;46020;-87
2021/06/18 02:35:47;;;;;;;5.68;2.78;;;;;;;;;;143735;564;46020;-88
2021/06/18 02:38:14;;;;;;;11.07;3.45;;;;;;;;;;143735;621;46012;-87
2021/06/18 02:40:42;;;;;;;2.72;2.50;;;;;;;;;;143732;648;46051;-86
2021/06/18 02:43:09;;;;;;;4.87;2.35;;;;;;;;;;143732;569;46013;-87
2021/06/18 02:45:36;;;;;;;5.90;3.25;;;;;;;;;;143733;612;47014;-87
2021/06/18 02:48:27;;;;;;;6.43;3.58;;;;;;;;;;143734;620;46012;-87
2021/06/18 02:51:11;;;;;;;3.60;2.70;;;;;;;;;;143731;582;46015;-87
2021/06/18 02:54:03;;;;;;;8.75;3.17;;;;;;;;;;143733;566;46012;-86
2021/06/18 02:56:51;;;;;;;8.23;2.50;;;;;;;;;;143736;565;46016;-85
2021/06/18 02:59:33;;;;;;;9.77;3.42;;;;;;;;;;143734;611;46013;-87
2021/06/18 03:02:02;;;;;;;6.15;3.70;;;;;;;;;;143733;706;46020;-87
2021/06/18 03:04:33;;;;;;;9.57;3.05;;;;;;;;;;143736;601;46021;-84
2021/06/18 03:07:03;;;;;;;7.05;3.28;;;;;;;;;;143735;633;46014;-87
2021/06/18 03:09:34;;;;;;;8.50;3.40;;;;;;;;;;143734;631;46020;-87
2021/06/18 03:12:01;;;;;;;7.93;3.37;;;;;;;;;;143733;609;46022;-86
2021/06/18 03:14:34;;;;;;;6.47;2.83;;;;;;;;;;143736;566;46020;-86
2021/06/18 03:17:06;;;;;;;5.90;2.62;;;;;;;;;;143736;598;46020;-86
2021/06/18 03:19:41;;;;;;;8.13;2.83;;;;;;;;;;143735;610;46012;-86
2021/06/18 03:22:10;;;;;;;9.38;2.97;;;;;;;;;;143732;569;46023;-87
2021/06/18 03:24:39;;;;;;;8.63;3.30;;;;;;;;;;143734;571;47012;-86
2021/06/18 03:27:06;;;;;;;5.32;3.00;;;;;;;;;;143734;577;46020;-86
2021/06/18 03:29:33;;;;;;;6.20;3.40;;;;;;;;;;143734;628;46021;-87
2021/06/18 03:32:02;;;;;;;11.40;5.35;;;;;;;;;;143737;640;46016;-86
2021/06/18 03:34:31;;;;;;;6.53;3.25;;;;;;;;;;143735;619;46012;-87
2021/06/18 03:36:59;;;;;;;6.90;3.78;;;;;;;;;;143734;581;46021;-88
2021/06/18 03:39:27;;;;;;;15.88;6.20;;;;;;;;;;143735;590;46012;-87
2021/06/18 03:41:54;;;;;;;20.95;10.40;;;;;;;;;;143732;578;46022;-85
2021/06/18 03:44:21;;;;;;;16.67;8.45;;;;;;;;;;143734;569;46013;-87
2021/06/18 03:46:50;;;;;;;23.40;10.80;;;;;;;;;;143737;651;46020;-90
2021/06/18 03:49:17;;;;;;;17.17;10.55;;;;;;;;;;143734;560;46012;-87
2021/06/18 03:51:44;;;;;;;19.85;10.55;;;;;;;;;;143733;599;46050;-87
2021/06/18 03:54:12;;;;;;;21.27;10.40;;;;;;;;;;143732;582;46012;-87
2021/06/18 03:56:42;;;;;;;21.90;9.10;;;;;;;;;;143735;656;46020;-86
2021/06/18 03:59:10;;;;;;;13.43;9.20;;;;;;;;;;143736;592;46013;-86
2021/06/18 04:01:39;;;;;;;15.30;8.65;;;;;;;;;;143730;621;47022;-87
2021/06/18 04:04:08;;;;;;;16.15;8.88;;;;;;;;;;143731;565;46012;-87
2021/06/18 04:06:35;;;;;;;18.15;8.50;;;;;;;;;;143734;590;46021;-87
2021/06/18 04:09:02;;;;;;;12.32;7.57;;;;;;;;;;143735;564;46020;-88
2021/06/18 04:11:29;;;;;;;18.70;6.37;;;;;;;;;;143734;616;46022;-88
2021/06/18 04:13:57;;;;;;;13.35;5.20;;;;;;;;;;143734;600;46012;-86
2021/06/18 04:16:24;;;;;;;20.95;6.32;;;;;;;;;;143733;573;46020;-86
2021/06/18 04:18:53;;;;;;;10.32;5.20;;;;;;;;;;143735;650;46012;-86
2021/06/18 04:21:22;;;;;;;12.52;5.50;;;;;;;;;;143733;641;46014;-86
2021/06/18 04:23:49;;;;;;;15.43;5.43;;;;;;;;;;143731;634;46012;-86
2021/06/18 04:26:18;;;;;;;11.05;6.18;;;;;;;;;;143733;663;46020;-88
2021/06/18 04:28:47;;;;;;;17.90;6.85;;;;;;;;;;143735;566;46012;-87
2021/06/18 04:31:13;;;;;;;18.23;7.65;;;;;;;;;;143732;640;46022;-88
2021/06/18 04:33:40;;;;;;;14.63;6.78;;;;;;;;;;143733;629;46012;-86
2021/06/18 04:36:07;;;;;;;20.65;7.03;;;;;;;;;;143735;606;46021;-86
2021/06/18 04:38:37;;;;;;;18.80;10.15;;;;;;;;;;143735;610;46012;-87
2021/06/18 04:41:04;;;;;;;22.67;8.23;;;;;;;;;;143732;569;46022;-87
2021/06/18 04:43:33;;;;;;;23.12;15.32;;;;;;;;;;143731;612;46013;-88
2021/06/18 04:46:00;;;;;;;26.85;10.45;;;;;;;;;;143736;595;46020;-87
2021/06/18 04:48:28;;;;;;;16.08;9.50;;;;;;;;;;143735;629;46012;-87
2021/06/18 04:50:58;;;;;;;16.60;10.15;;;;;;;;;;143734;586;46022;-87
2021/06/18 04:53:25;;;;;;;23.25;9.77;;;;;;;;;;143733;590;46012;-87
2021/06/18 04:55:52;;;;;;;15.07;9.93;;;;;;;;;;143734;637;46020;-88
2021/06/18 04:58:20;;;;;;;19.02;11.23;;;;;;;;;;143736;695;46013;-89
2021/06/18 05:00:47;;;;;;;19.83;10.55;;;;;;;;;;143733;635;46022;-89
2021/06/18 05:03:13;;;;;;;32.05;10.07;;;;;;;;;;143733;656;46012;-86
2021/06/18 05:05:40;;;;;;;19.15;9.02;;;;;;;;;;143733;628;46015;-87
2021/06/18 05:08:06;;;;;;;20.15;9.00;;;;;;;;;;143736;644;46012;-86
2021/06/18 05:10:33;;;;;;;18.85;10.48;;;;;;;;;;143737;571;45022;-87
2021/06/18 05:13:00;;;;;;;20.92;9.05;;;;;;;;;;143733;564;46013;-86
2021/06/18 05:15:27;;;;;;;14.00;10.27;;;;;;;;;;143736;575;46020;-86
2021/06/18 05:17:53;;;;;;;15.20;9.25;;;;;;;;;;143736;695;46020;-87
2021/06/18 05:20:20;;;;;;;14.70;8.88;;;;;;;;;;143733;592;46051;-88
2021/06/18 05:22:47;;;;;;;14.55;8.38;;;;;;;;;;143731;625;46012;-88
2021/06/18 05:25:14;;;;;;;18.45;8.93;;;;;;;;;;143734;803;46020;-87
2021/06/18 05:27:41;;;;;;;13.43;9.27;;;;;;;;;;143734;595;46013;-86
2021/06/18 05:30:09;;;;;;;20.12;8.90;;;;;;;;;;143732;613;46014;-87
2021/06/18 05:32:36;;;;;;;14.35;7.60;;;;;;;;;;143731;593;46012;-87
2021/06/18 05:35:03;;;;;;;9.60;7.18;;;;;;;;;;143734;635;46021;-89
2021/06/18 05:37:30;;;;;;;16.73;6.85;;;;;;;;;;143736;618;46012;-88
2021/06/18 05:39:57;;;;;;;19.35;8.25;;;;;;;;;;143732;642;46022;-87
2021/06/18 05:42:24;;;;;;;18.92;7.62;;;;;;;;;;262386;65;108183;-88
2021/06/18 05:44:51;;;;;;;15.45;6.37;;;;;;;;;;143733;570;46018;-87
2021/06/18 05:47:17;;;;;;;16.42;8.02;;;;;;;;;;143735;617;46010;-88
2021/06/18 05:49:45;;;;;;;15.23;6.78;;;;;;;;;;143734;631;46013;-88
2021/06/18 05:52:12;;;;;;;14.68;6.95;;;;;;;;;;143733;598;46010;-88
2021/06/18 05:54:38;;;;;;;7.30;4.82;;;;;;;;;;143733;565;46018;-90
2021/06/18 05:57:06;;;;;;;10.98;4.78;;;;;;;;;;143737;616;46022;-89
2021/06/18 05:59:33;;;;;;;6.68;3.30;;;;;;;;;;143732;625;46020;-92
2021/06/18 06:02:00;;;;;;;4.15;2.70;;;;;;;;;;143732;624;46920;-87
2021/06/18 06:04:26;;;;;;;3.58;2.42;;;;;;;;;;143738;572;46017;-89
2021/06/18 06:06:53;;;;;;;3.80;2.72;;;;;;;;;;143737;582;46010;-87
2021/06/18 06:09:19;;;;;;;3.83;2.30;;;;;;;;;;143733;759;47020;-88
2021/06/18 06:11:46;;;;;;;3.92;2.33;;;;;;;;;;143739;686;45029;-89
2021/06/18 06:14:19;;;;;;;5.70;2.62;;;;;;;;;;143734;693;48018;-90
2021/06/18 06:16:49;;;;;;;3.60;2.67;;;;;;;;;;143739;580;46010;-86
2021/06/18 06:19:16;;;;;;;4.80;2.28;;;;;;;;;;143736;586;46020;-89
2021/06/18 06:21:44;;;;;;;2.92;2.20;;;;;;;;;;143738;620;46010;-87
2021/06/18 06:24:12;;;;;;;4.62;1.85;;;;;;;;;;143733;574;47018;-88
2021/06/18 06:26:39;;;;;;;4.65;2.05;;;;;;;;;;143739;570;46010;-86
2021/06/18 06:29:07;;;;;;;5.12;2.40;;;;;;;;;;143734;573;46021;-86
2021/06/18 06:31:34;;;;;;;4.30;2.35;;;;;;;;;;143734;641;46010;-86
2021/06/18 06:34:01;;;;;;;3.45;2.30;;;;;;;;;;143737;598;46019;-87
2021/06/18 06:36:27;;;;;;;4.12;2.47;;;;;;;;;;143737;569;46010;-88
2021/06/18 06:38:55;;;;;;;2.87;2.00;;;;;;;;;;143734;587;46020;-89
2021/06/18 06:41:21;;;;;;;5.03;2.17;;;;;;;;;;143734;587;46010;-88
2021/06/18 06:43:48;;;;;;;7.93;2.25;;;;;;;;;;143736;564;46018;-87
2021/06/18 06:46:15;;;;;;;4.15;2.20;;;;;;;;;;143736;590;46022;-86
2021/06/18 06:48:41;;;;;;;2.58;2.20;;;;;;;;;;143733;580;46020;-87
2021/06/18 06:51:08;;;;;;;3.08;2.10;;;;;;;;;;143734;613;46921;-86
2021/06/18 06:53:34;;;;;;;4.00;3.22;;;;;;;;;;143738;603;46012;-89
2021/06/18 06:56:01;;;;;;;5.47;1.98;;;;;;;;;;143739;589;46010;-87
2021/06/18 06:58:28;;;;;;;2.67;1.70;;;;;;;;;;143734;612;46018;-88
2021/06/18 07:00:54;;;;;;;3.22;2.55;;;;;;;;;;143736;569;46010;-88
2021/06/18 07:03:21;;;;;;;6.25;2.87;;;;;;;;;;143736;603;46019;-88
2021/06/18 07:05:49;;;;;;;3.15;2.42;;;;;;;;;;143736;597;46010;-86
2021/06/18 07:08:18;;;;;;;5.93;2.15;;;;;;;;;;143736;591;46018;-86
2021/06/18 07:10:45;;;;;;;4.53;2.55;;;;;;;;;;143736;613;46011;-89
2021/06/18 07:13:12;;;;;;;4.10;2.20;;;;;;;;;;143735;587;46019;-89
2021/06/18 07:15:39;;;;;;;4.35;2.62;;;;;;;;;;143738;589;46022;-90
2021/06/18 07:18:05;;;;;;;3.37;2.03;;;;;;;;;;143736;601;46020;-91
2021/06/18 07:20:32;;;;;;;9.77;2.55;;;;;;;;;;143733;587;46010;-92
2021/06/18 07:22:59;;;;;;;5.90;2.50;;;;;;;;;;143738;581;46012;-92
2021/06/18 07:25:26;;;;;;;8.73;2.22;;;;;;;;;;143737;599;46010;-92
2021/06/18 07:27:52;;;;;;;2.70;2.08;;;;;;;;;;143735;574;46021;-92
2021/06/18 07:30:19;;;;;;;5.03;2.12;;;;;;;;;;143735;589;46010;-91
2021/06/18 07:32:46;;;;;;;10.48;2.37;;;;;;;;;;143737;651;46018;-90
2021/06/18 07:35:13;;;;;;;5.50;2.72;;;;;;;;;;143737;622;46010;-91
2021/06/18 07:37:40;;;;;;;3.92;1.98;;;;;;;;;;143736;617;46018;-90
2021/06/18 07:40:08;;;;;;;3.33;2.10;;;;;;;;;;143736;606;46011;-90
2021/06/18 07:42:34;;;;;;;4.35;2.80;;;;;;;;;;143736;592;46037;-92
2021/06/18 07:45:01;;;;;;;4.25;2.15;;;;;;;;;;143738;631;46010;-90
2021/06/18 07:47:27;;;;;;;3.30;1.85;;;;;;;;;;143735;570;46020;-90
2021/06/18 07:49:54;;;;;;;3.50;2.17;;;;;;;;;;143736;628;46023;-90
2021/06/18 07:52:21;;;;;;;7.40;2.12;;;;;;;;;;143736;608;46018;-91
2021/06/18 07:54:51;;;;;;;5.40;2.05;;;;;;;;;;143737;586;46011;-90
2021/06/18 07:57:17;;;;;;;6.53;2.20;;;;;;;;;;143734;634;46021;-90
2021/06/18 07:59:44;;;;;;;2.95;2.12;;;;;;;;;;143734;583;46010;-92
2021/06/18 08:02:10;;;;;;;4.20;2.15;;;;;;;;;;143735;609;46012;-90
2021/06/18 08:04:37;;;;;;;4.70;2.35;;;;;;;;;;143737;640;46011;-90
2021/06/18 08:07:04;;;;;;;9.68;3.00;;;;;;;;;;143734;571;46018;-89
2021/06/18 08:09:30;;;;;;;4.75;2.78;;;;;;;;;;143732;584;46012;-90
2021/06/18 08:11:57;;;;;;;6.90;2.47;;;;;;;;;;143725;619;46019;-90
2021/06/18 08:14:23;;;;;;;4.07;2.47;;;;;;;;;;143734;634;46012;-90
2021/06/18 08:16:50;;;;;;;3.92;2.60;;;;;;;;;;143734;577;46018;-92
2021/06/18 08:19:17;;;;;;;6.00;2.20;;;;;;;;;;143731;648;46921;-93
2021/06/18 08:21:43;;;;;;;4.87;2.45;;;;;;;;;;143733;566;46018;-90
2021/06/18 08:24:10;;;;;;;6.93;2.45;;;;;;;;;;143734;593;46046;-91
2021/06/18 08:26:37;;;;;;;3.85;2.30;;;;;;;;;;143734;626;46020;-91
2021/06/18 08:29:03;;;;;;;4.93;2.15;;;;;;;;;;143732;599;46022;-90
2021/06/18 08:31:30;;;;;;;10.13;2.75;;;;;;;;;;143732;609;46018;-90
2021/06/18 08:33:57;;;;;;;5.30;2.55;;;;;;;;;;143735;592;46012;-91
2021/06/18 08:36:24;;;;;;;8.55;2.62;;;;;;;;;;143728;643;46020;-91
2021/06/18 08:38:51;;;;;;;5.70;2.50;;;;;;;;;;143732;640;46012;-90
2021/06/18 08:41:18;;;;;;;5.90;2.22;;;;;;;;;;143734;580;46019;-91
2021/06/18 08:43:46;;;;;;;7.18;2.17;;;;;;;;;;143734;642;46012;-93
2021/06/18 08:46:12;;;;;;;5.78;2.35;;;;;;;;;;143734;672;46018;-91
2021/06/18 08:48:39;;;;;;;7.15;3.10;;;;;;;;;;143733;604;46011;-90
2021/06/18 08:51:06;;;;;;;6.45;2.47;;;;;;;;;;143733;589;46018;-91
2021/06/18 08:53:36;;;;;;;7.35;2.90;;;;;;;;;;143734;618;46012;-92
2021/06/18 08:56:06;;;;;;;4.55;3.05;;;;;;;;;;143732;643;46020;-91
2021/06/18 08:58:32;;;;;;;9.57;3.00;;;;;;;;;;143733;618;46022;-91
2021/06/18 09:01:00;;;;;;;6.70;3.42;;;;;;;;;;143726;626;48018;-89
2021/06/18 09:03:35;;;;;;;7.95;3.30;;;;;;;;;;143737;564;46012;-91
2021/06/18 09:06:26;;;;;;;9.85;3.20;;;;;;;;;;143734;621;46014;-92
2021/06/18 09:09:36;;;;;;;13.48;2.80;;;;;;;;;;143731;619;46012;-89
2021/06/18 09:12:04;;;;;;;4.22;3.75;;;;;;;;;;143735;588;46018;-92
2021/06/18 09:14:33;;;;;;;11.25;3.95;;;;;;;;;;143736;576;46022;-90
2021/06/18 09:17:17;;;;;;;7.95;3.70;;;;;;;;;;143732;599;46020;-90
2021/06/18 09:19:55;;;;;;;7.00;3.62;;;;;;;;;;143731;645;46021;-92
2021/06/18 09:22:38;;;;;;;7.40;3.87;;;;;;;;;;143733;623;46018;-91
2021/06/18 09:25:11;;;;;;;4.32;3.30;;;;;;;;;;143735;645;46012;-92
2021/06/18 09:27:41;;;;;;;4.20;3.00;;;;;;;;;;143725;638;46021;-90
2021/06/18 09:30:31;;;;;;;13.20;3.72;;;;;;;;;;143733;577;46012;-89
2021/06/18 09:33:13;;;;;;;6.35;3.65;;;;;;;;;;143735;570;46019;-90
2021/06/18 09:36:08;;;;;;;5.03;2.90;;;;;;;;;;143735;581;46012;-91
2021/06/18 09:38:55;;;;;;;8.10;3.17;;;;;;;;;;143731;596;46015;-91
2021/06/18 09:41:39;;;;;;;8.20;3.22;;;;;;;;;;143732;566;46012;-91
2021/06/18 09:44:16;;;;;;;6.62;3.22;;;;;;;;;;143735;590;46018;-86
2021/06/18 09:47:05;;;;;;;6.93;3.10;;;;;;;;;;143733;607;46013;-91
2021/06/18 09:49:41;;;;;;;4.78;3.83;;;;;;;;;;143734;593;46021;-91
2021/06/18 09:52:15;;;;;;;9.80;4.43;;;;;;;;;;143732;571;46018;-90
2021/06/18 09:54:45;;;;;;;9.75;4.20;;;;;;;;;;143726;589;46019;-89
2021/06/18 09:57:17;;;;;;;9.07;3.47;;;;;;;;;;143733;573;46012;-91
2021/06/18 09:59:57;;;;;;;7.90;3.25;;;;;;;;;;143734;611;46020;-90
2021/06/18 10:02:47;;;;;;;4.72;3.25;;;;;;;;;;143731;574;46013;-91
2021/06/18 10:05:37;;;;;;;5.65;3.55;;;;;;;;;;143733;577;46018;-90
2021/06/18 10:08:05;;;;;;;6.53;4.05;;;;;;;;;;143734;643;46012;-91
2021/06/18 10:10:35;;;;;;;9.98;3.40;;;;;;;;;;143731;587;46020;-90
2021/06/18 10:13:03;;;;;;;6.87;3.10;;;;;;;;;;143731;736;46012;-90
2021/06/18 10:15:31;;;;;;;5.97;2.90;;;;;;;;;;143732;580;46018;-90
2021/06/18 10:17:58;;;;;;;11.10;2.67;;;;;;;;;;143735;586;46022;-89
2021/06/18 10:20:30;;;;;;;7.28;3.17;;;;;;;;;;143726;597;46020;-90
2021/06/18 10:23:21;;;;;;;3.17;2.78;;;;;;;;;;143733;580;46034;-90
2021/06/18 10:26:00;;;;;;;10.57;2.70;;;;;;;;;;143732;584;46019;-89
2021/06/18 10:28:29;;;;;;;3.17;2.62;;;;;;;;;;143731;684;46012;-88
2021/06/18 10:30:57;;;;;;;5.37;1.90;;;;;;;;;;143733;571;46012;-89
2021/06/18 10:33:35;;;;;;;7.87;2.28;;;;;;;;;;143732;617;46012;-91
2021/06/18 10:36:29;;;;;;;8.80;2.12;;;;;;;;;;143727;624;47018;-88
2021/06/18 10:39:14;;;;;;;4.90;2.17;;;;;;;;;;143734;598;46020;-92
2021/06/18 10:42:01;;;;;;;3.28;2.10;;;;;;;;;;143736;621;46021;-89
2021/06/18 10:45:00;;;;;;;5.20;2.37;;;;;;;;;;143732;571;46012;-88
2021/06/18 10:47:55;;;;;;;3.67;2.53;;;;;;;;;;143725;566;46033;-89
2021/06/18 10:50:48;;;;;;;2.75;2.15;;;;;;;;;;143733;617;46012;-90
2021/06/18 10:53:20;;;;;;;4.60;2.03;;;;;;;;;;143733;580;46022;-89
2021/06/18 10:55:48;;;;;;;6.85;2.05;;;;;;;;;;143734;601;46023;-88
2021/06/18 10:59:04;;;;;;;2.87;2.03;;;;;;;;;;143732;618;46018;-90
2021/06/18 11:01:35;;;;;;;4.70;2.10;;;;;;;;;;143736;589;46023;-89
2021/06/18 11:04:04;;;;;;;7.93;2.55;;;;;;;;;;143735;743;46018;-90
2021/06/18 11:06:50;;;;;;;3.87;2.97;;;;;;;;;;143734;569;46012;-90
2021/06/18 11:09:46;;;;;;;7.80;2.20;;;;;;;;;;143736;898;46018;-89
2021/06/18 11:12:49;;;;;;;3.55;2.08;;;;;;;;;;143735;576;47022;-90
2021/06/18 11:15:45;;;;;;;2.40;1.90;;;;;;;;;;143728;575;46018;-90
2021/06/18 11:18:27;;;;;;;2.97;2.17;;;;;;;;;;143731;638;46020;-88
2021/06/18 11:20:54;;;;;;;;;;;;;;;;;;143735;978;47018;-86
2021/06/18 11:23:26;;;;;;;3.47;1.70;;;;;;;;;;143739;600;46022;-88
2021/06/18 11:25:58;;;;;;;4.35;1.70;;;;;;;;;;143732;787;46019;-90
2021/06/18 11:28:44;;;;;;;5.12;1.70;;;;;;;;;;143731;579;46920;-89
2021/06/18 11:31:36;;;;;;;7.18;1.80;;;;;;;;;;143731;566;46018;-89
2021/06/18 11:34:03;;;;;;;2.65;1.70;;;;;;;;;;143731;972;46012;-91
2021/06/18 11:36:42;;;;;;;2.83;1.73;;;;;;;;;;143731;593;46020;-90
2021/06/18 11:39:15;;;;;;;4.07;1.90;;;;;;;;;;143729;796;46023;-88
2021/06/18 11:41:46;;;;;;;3.17;2.50;;;;;;;;;;143723;882;46018;-90
2021/06/18 11:44:16;;;;;;;4.05;2.20;;;;;;;;;;143732;973;46020;-88
2021/06/18 11:46:43;;;;;;;2.87;1.98;;;;;;;;;;143731;851;46020;-88
2021/06/18 11:49:20;;;;;;;6.35;2.33;;;;;;;;;;143729;646;46012;-89
2021/06/18 11:51:51;;;;;;;4.90;2.78;;;;;;;;;;143731;968;46018;-87
2021/06/18 11:54:43;;;;;;;3.22;2.28;;;;;;;;;;143736;711;45028;-90
2021/06/18 11:57:25;;;;;;;7.12;2.87;;;;;;;;;;143737;617;45024;-90
2021/06/18 12:00:21;;;;;;;5.65;1.92;;;;;;;;;;143737;578;45022;-90
2021/06/18 12:03:07;;;;;;;5.57;1.80;;;;;;;;;;143736;888;46018;-91
2021/06/18 12:05:47;;;;;;;2.92;1.52;;;;;;;;;;143737;594;45022;-90
2021/06/18 12:08:31;;;;;;;4.45;1.85;;;;;;;;;;143729;829;45020;-91
2021/06/18 12:11:24;;;;;;;6.22;2.15;;;;;;;;;;143736;578;45923;-92
2021/06/18 12:14:20;;;;;;;13.43;2.42;;;;;;;;;;143737;823;45018;-89
2021/06/18 12:17:04;;;;;;;3.33;2.42;;;;;;;;;;143736;688;45023;-90
2021/06/18 12:20:01;;;;;;;2.58;1.85;;;;;;;;;;143734;592;45917;-89
2021/06/18 12:23:00;;;;;;;3.50;1.87;;;;;;;;;;143736;687;45910;-90
2021/06/18 12:25:44;;;;;;;12.43;2.47;;;;;;;;;;143736;972;45021;-89
2021/06/18 12:29:06;;;;;;;7.07;1.80;;;;;;;;;;143736;668;45024;-90
2021/06/18 12:31:36;;;;;;;3.53;1.62;;;;;;;;;;143733;574;46018;-90
2021/06/18 12:34:06;;;;;;;3.08;2.12;;;;;;;;;;143730;571;47022;-93
2021/06/18 12:36:35;;;;;;;4.57;1.95;;;;;;;;;;143724;589;46018;-89
2021/06/18 12:39:11;;;;;;;11.60;1.90;;;;;;;;;;143732;566;46014;-89
2021/06/18 12:41:49;;;;;;;5.40;1.83;;;;;;;;;;143731;742;46021;-90
2021/06/18 12:44:41;;;;;;;5.82;2.42;;;;;;;;;;143731;593;46012;-90
2021/06/18 12:47:11;;;;;;;2.28;1.90;;;;;;;;;;143729;783;46019;-88
2021/06/18 12:49:40;;;;;;;4.37;2.00;;;;;;;;;;143728;623;46020;-91
2021/06/18 12:52:23;;;;;;;5.40;1.65;;;;;;;;;;143730;631;46020;-88
2021/06/18 12:55:01;;;;;;;;;;;;;;;;;;143734;977;46023;-90
2021/06/18 12:57:28;;;;;;;3.83;1.95;;;;;;;;;;143737;588;46012;-90
2021/06/18 13:00:30;;;;;;;4.85;2.90;;;;;;;;;;143732;835;46012;-89
2021/06/18 13:02:57;;;;;;;2.78;1.83;;;;;;;;;;143723;637;46023;-88
2021/06/18 13:05:26;;;;;;;4.47;2.50;;;;;;;;;;143731;615;46052;-91
2021/06/18 13:07:53;;;;;;;2.72;1.83;;;;;;;;;;143732;708;46018;-91
2021/06/18 13:10:19;;;;;;;4.35;2.33;;;;;;;;;;143733;594;46010;-88
2021/06/18 13:12:57;;;;;;;9.10;2.35;;;;;;;;;;143730;587;46020;-89
2021/06/18 13:15:31;;;;;;;3.15;1.77;;;;;;;;;;143729;856;46018;-91
2021/06/18 13:17:58;;;;;;;3.37;1.83;;;;;;;;;;143731;575;46018;-90
2021/06/18 13:20:36;;;;;;;2.53;2.00;;;;;;;;;;143732;799;46012;-89
2021/06/18 13:23:26;;;;;;;5.15;2.08;;;;;;;;;;143730;963;46043;-88
2021/06/18 13:26:10;;;;;;;6.65;1.87;;;;;;;;;;143734;877;46010;-90
2021/06/18 13:28:42;;;;;;;8.02;1.40;;;;;;;;;;143723;805;46018;-88
2021/06/18 13:31:22;;;;;;;3.17;1.75;;;;;;;;;;143732;567;46012;-92
2021/06/18 13:33:51;;;;;;;3.70;2.00;;;;;;;;;;143730;706;46021;-88
2021/06/18 13:36:32;;;;;;;2.67;1.90;;;;;;;;;;143729;678;46012;-86
2021/06/18 13:39:30;;;;;;;3.35;1.85;;;;;;;;;;143731;667;46019;-89
2021/06/18 13:41:57;;;;;;;2.67;1.55;;;;;;;;;;143730;966;46014;-91
2021/06/18 13:44:28;;;;;;;2.58;1.50;;;;;;;;;;143729;583;47020;-88
2021/06/18 13:46:55;;;;;;;3.22;2.78;;;;;;;;;;143728;565;46013;-89
2021/06/18 13:49:22;;;;;;;4.95;2.15;;;;;;;;;;143733;577;46018;-87
2021/06/18 13:51:49;;;;;;;2.65;1.87;;;;;;;;;;143732;696;46022;-90
2021/06/18 13:54:28;;;;;;;2.53;1.70;;;;;;;;;;143726;944;46014;-88
2021/06/18 13:56:55;;;;;;;2.05;1.73;;;;;;;;;;143729;905;46012;-89
2021/06/18 13:59:23;;;;;;;5.70;2.00;;;;;;;;;;143731;710;46018;-88
2021/06/18 14:01:49;;;;;;;3.10;1.62;;;;;;;;;;143734;579;46012;-89
2021/06/18 14:04:16;;;;;;;9.35;1.85;;;;;;;;;;143730;583;47020;-88
2021/06/18 14:06:42;;;;;;;2.22;1.60;;;;;;;;;;143727;843;48010;-88
2021/06/18 14:09:10;;;;;;;3.10;1.35;;;;;;;;;;143731;588;46019;-87
2021/06/18 14:11:37;;;;;;;2.65;1.60;;;;;;;;;;143729;661;47012;-88
2021/06/18 14:14:06;;;;;;;6.87;1.85;;;;;;;;;;143732;570;46020;-89
2021/06/18 14:16:45;;;;;;;6.25;1.83;;;;;;;;;;143730;976;46019;-88
2021/06/18 14:19:12;;;;;;;5.43;1.90;;;;;;;;;;143723;564;46018;-89
2021/06/18 14:21:39;;;;;;;3.30;1.70;;;;;;;;;;143731;613;46015;-89
2021/06/18 14:24:07;;;;;;;3.60;1.60;;;;;;;;;;143731;569;47021;-89
2021/06/18 14:26:34;;;;;;;2.53;1.75;;;;;;;;;;143730;633;46012;-88
2021/06/18 14:29:00;;;;;;;6.12;1.67;;;;;;;;;;143732;583;46013;-89
2021/06/18 14:31:32;;;;;;;2.80;1.58;;;;;;;;;;143731;818;46012;-88
2021/06/18 14:33:58;;;;;;;5.82;2.03;;;;;;;;;;143730;591;46018;-89
2021/06/18 14:36:26;;;;;;;2.05;1.60;;;;;;;;;;143729;656;46012;-89
2021/06/18 14:38:57;;;;;;;2.50;1.67;;;;;;;;;;143731;587;46014;-88
2021/06/18 14:41:24;;;;;;;3.30;1.60;;;;;;;;;;143732;624;46012;-87
2021/06/18 14:43:51;;;;;;;2.47;1.58;;;;;;;;;;143724;564;46020;-86
2021/06/18 14:46:18;;;;;;;2.70;1.83;;;;;;;;;;143731;569;46012;-87
2021/06/18 14:48:46;;;;;;;3.05;1.62;;;;;;;;;;143732;582;46018;-90
2021/06/18 14:51:13;;;;;;;3.97;1.95;;;;;;;;;;143732;629;46012;-89
2021/06/18 14:53:40;;;;;;;11.50;2.03;;;;;;;;;;143731;564;46021;-89
2021/06/18 14:56:07;;;;;;;3.42;1.95;;;;;;;;;;143729;973;46921;-87
2021/06/18 14:58:33;;;;;;;3.55;2.00;;;;;;;;;;143731;591;47017;-87
2021/06/18 15:01:00;;;;;;;2.15;1.90;;;;;;;;;;143732;882;46012;-88
2021/06/18 15:03:28;;;;;;;3.25;1.80;;;;;;;;;;143732;593;46044;-88
2021/06/18 15:05:55;;;;;;;5.72;2.20;;;;;;;;;;143731;872;46010;-87
2021/06/18 15:08:21;;;;;;;7.75;2.25;;;;;;;;;;143724;871;46019;-88
2021/06/18 15:10:48;;;;;;;4.35;1.87;;;;;;;;;;143732;578;46022;-90
2021/06/18 15:13:15;;;;;;;2.55;1.73;;;;;;;;;;143731;639;46020;-89